Time;durP1;ratioP1;P1;durP2;ratioP2;P2;SDS_P1;SDS_P2;PMS_P1;PMS_P2;Temp;Humidity;BMP_temperature;BMP_pressure;BME280_temperature;BME280_humidity;BME280_pressure;Samples;Min_cycle;Max_cycle;Signal;HPM_P1;HPM_P2
2021/11/07 00:01:59;;;;;;;37.65;17.55;;;;;;;-139.48;100.00;61774.03;5022015;28;20043;-67
2021/11/07 00:04:45;;;;;;;44.33;17.38;;;;;;;-139.48;100.00;61774.03;5035550;28;20133;-67
2021/11/07 00:07:51;;;;;;;46.30;17.90;;;;;;;-139.48;100.00;61774.03;5021027;28;20551;-67
2021/11/07 00:13:26;;;;;;;44.15;17.15;;;;;;;-139.48;100.00;61774.03;5021246;28;20095;-63
2021/11/07 00:16:15;;;;;;;42.70;13.27;;;;;;;-139.48;100.00;61774.03;5020544;28;20049;-67
2021/11/07 00:19:11;;;;;;;30.45;12.02;;;;;;;-139.48;100.00;61774.03;5035005;28;20513;-67
2021/11/07 00:27:58;;;;;;;56.30;21.58;;;;;;;-139.48;100.00;61774.03;5034990;28;20064;-65
2021/11/07 00:31:17;;;;;;;62.22;20.90;;;;;;;-139.48;100.00;61774.03;5034710;28;20052;-68
2021/11/07 00:39:44;;;;;;;32.22;11.65;;;;;;;-139.48;100.00;61774.03;5034794;28;20053;-67
2021/11/07 00:45:32;;;;;;;72.28;24.55;;;;;;;-139.48;100.00;61774.03;5020402;28;20098;-65
2021/11/07 00:51:15;;;;;;;;;;;;;;;-139.48;100.00;61774.03;5020049;28;20125;-66
2021/11/07 00:57:17;;;;;;;62.80;22.38;;;;;;;-139.48;100.00;61774.03;5019216;28;20132;-67
2021/11/07 00:59:55;;;;;;;61.85;23.70;;;;;;;-139.48;100.00;61774.03;5034764;28;20048;-67
2021/11/07 01:02:40;;;;;;;52.38;20.63;;;;;;;-139.48;100.00;61774.03;5034153;28;20052;-67
2021/11/07 01:05:27;;;;;;;53.70;21.92;;;;;;;-139.48;100.00;61774.03;5034077;28;20072;-65
2021/11/07 01:08:11;;;;;;;38.17;14.95;;;;;;;-139.48;100.00;61774.03;5019299;28;20052;-66
2021/11/07 01:10:57;;;;;;;46.03;18.55;;;;;;;-139.48;100.00;61774.03;5019310;28;20119;-67
2021/11/07 01:13:43;;;;;;;54.80;20.92;;;;;;;-139.48;100.00;61774.03;5033919;28;20052;-67
2021/11/07 01:16:28;;;;;;;53.25;22.98;;;;;;;-139.48;100.00;61774.03;5019218;28;20179;-67
2021/11/07 01:19:12;;;;;;;33.00;13.43;;;;;;;-139.48;100.00;61774.03;5019104;28;20040;-67
2021/11/07 01:21:58;;;;;;;59.45;22.98;;;;;;;-139.48;100.00;61774.03;5018824;28;20561;-67
2021/11/07 01:24:53;;;;;;;51.33;21.52;;;;;;;-139.48;100.00;61774.03;5033820;28;20053;-67
2021/11/07 01:27:46;;;;;;;;;;;;;;;-139.48;100.00;61774.03;5020831;28;20123;-67
2021/11/07 01:30:32;;;;;;;36.67;15.35;;;;;;;-139.48;100.00;61774.03;5033926;28;20445;-67
2021/11/07 01:33:22;;;;;;;40.20;19.30;;;;;;;-139.48;100.00;61774.03;5018906;28;20457;-67
2021/11/07 01:39:04;;;;;;;43.58;20.27;;;;;;;-139.48;100.00;61774.03;5033960;28;20087;-66
2021/11/07 01:42:12;;;;;;;41.63;20.05;;;;;;;-139.48;100.00;61774.03;5033735;28;20052;-67
2021/11/07 01:45:03;;;;;;;44.85;18.75;;;;;;;-139.48;100.00;61774.03;5021691;28;20099;-67
2021/11/07 01:47:52;;;;;;;41.35;20.30;;;;;;;-139.48;100.00;61774.03;5019607;28;20048;-67
2021/11/07 01:50:42;;;;;;;40.28;17.83;;;;;;;-139.48;100.00;61774.03;5019042;28;20457;-67
2021/11/07 01:53:33;;;;;;;40.72;17.83;;;;;;;-139.48;100.00;61774.03;5019542;28;20056;-67
2021/11/07 01:56:18;;;;;;;40.22;18.08;;;;;;;-139.48;100.00;61774.03;5019111;28;20042;-66
2021/11/07 01:59:02;;;;;;;39.78;18.05;;;;;;;-139.48;100.00;61774.03;5033201;28;20135;-67
2021/11/07 02:01:54;;;;;;;41.88;18.73;;;;;;;-139.48;100.00;61774.03;5018465;28;20048;-67
2021/11/07 02:04:40;;;;;;;47.33;19.98;;;;;;;-139.48;100.00;61774.03;5018673;28;20125;-67
2021/11/07 02:07:23;;;;;;;44.72;18.30;;;;;;;-139.48;100.00;61774.03;5018487;28;20056;-67
2021/11/07 02:10:08;;;;;;;;;;;;;;;-139.48;100.00;61774.03;5018633;28;20041;-67
2021/11/07 02:12:52;;;;;;;;;;;;;;;-139.48;100.00;61774.03;5035210;28;20007;-66
2021/11/07 02:15:36;;;;;;;59.03;21.83;;;;;;;-139.48;100.00;61774.03;5039925;28;20294;-67
2021/11/07 02:18:21;;;;;;;59.72;21.58;;;;;;;-139.48;100.00;61774.03;5010803;28;20262;-67
2021/11/07 02:21:05;;;;;;;59.28;23.63;;;;;;;-139.48;100.00;61774.03;5039909;28;20064;-67
2021/11/07 02:23:49;;;;;;;57.53;24.10;;;;;;;-139.48;100.00;61774.03;5024922;28;20055;-67
2021/11/07 02:26:33;;;;;;;54.83;22.48;;;;;;;-139.48;100.00;61774.03;5040106;28;20071;-67
2021/11/07 02:29:19;;;;;;;58.15;23.77;;;;;;;-139.48;100.00;61774.03;5039747;28;20052;-65
2021/11/07 02:32:04;;;;;;;66.78;25.60;;;;;;;-139.48;100.00;61774.03;5024866;28;20095;-68
2021/11/07 02:34:48;;;;;;;68.53;26.90;;;;;;;-139.48;100.00;61774.03;5024721;28;20155;-65
2021/11/07 02:37:32;;;;;;;60.42;22.20;;;;;;;-139.48;100.00;61774.03;5024491;28;20048;-66
2021/11/07 02:40:17;;;;;;;66.00;24.27;;;;;;;-139.48;100.00;61774.03;5024669;28;20047;-66
2021/11/07 02:43:01;;;;;;;62.60;20.33;;;;;;;-139.48;100.00;61774.03;5024875;28;20083;-67
2021/11/07 02:45:46;;;;;;;64.68;22.85;;;;;;;-139.48;100.00;61774.03;5024568;28;20124;-65
2021/11/07 02:48:29;;;;;;;73.05;28.05;;;;;;;-139.48;100.00;61774.03;5024810;28;20048;-67
2021/11/07 02:51:14;;;;;;;49.65;17.27;;;;;;;-139.48;100.00;61774.03;5024617;28;20088;-67
2021/11/07 02:54:04;;;;;;;68.72;28.65;;;;;;;-139.48;100.00;61774.03;5024247;28;20044;-67
2021/11/07 02:56:49;;;;;;;52.13;19.75;;;;;;;-139.48;100.00;61774.03;5024347;28;20056;-67
2021/11/07 02:59:38;;;;;;;64.13;27.58;;;;;;;-139.48;100.00;61774.03;5024734;28;20049;-67
2021/11/07 03:02:22;;;;;;;50.13;21.25;;;;;;;-139.48;100.00;61774.03;5024969;28;20052;-66
2021/11/07 03:05:08;;;;;;;65.90;27.52;;;;;;;-139.48;100.00;61774.03;5024185;28;20099;-67
2021/11/07 03:07:52;;;;;;;64.40;28.30;;;;;;;-139.48;100.00;61774.03;5024381;28;20047;-66
2021/11/07 03:10:36;;;;;;;65.40;28.27;;;;;;;-139.48;100.00;61774.03;5039733;28;20041;-66
2021/11/07 03:13:20;;;;;;;44.10;21.25;;;;;;;-139.48;100.00;61774.03;5039153;28;20128;-67
2021/11/07 03:16:07;;;;;;;53.45;26.58;;;;;;;-139.48;100.00;61774.03;5039116;28;20091;-68
2021/11/07 03:18:51;;;;;;;48.53;24.05;;;;;;;-139.48;100.00;61774.03;5039138;28;20103;-67
2021/11/07 03:21:35;;;;;;;43.70;22.15;;;;;;;-139.48;100.00;61774.03;5024203;28;20068;-68
2021/11/07 03:24:20;;;;;;;53.90;26.40;;;;;;;-139.48;100.00;61774.03;5022488;28;20056;-68
2021/11/07 03:27:12;;;;;;;53.92;27.55;;;;;;;-139.48;100.00;61774.03;5021135;28;20049;-66
2021/11/07 03:29:58;;;;;;;55.78;28.85;;;;;;;-139.48;100.00;61774.03;5035804;28;20410;-67
2021/11/07 03:32:45;;;;;;;54.55;26.67;;;;;;;-139.48;100.00;61774.03;5021654;28;20482;-67
2021/11/07 03:35:31;;;;;;;58.08;26.92;;;;;;;-139.48;100.00;61774.03;5021337;28;20052;-67
2021/11/07 03:38:15;;;;;;;50.95;26.48;;;;;;;-139.48;100.00;61774.03;5035946;28;20129;-67
2021/11/07 03:40:59;;;;;;;49.70;27.13;;;;;;;-139.48;100.00;61774.03;5021001;28;20549;-67
2021/11/07 03:43:43;;;;;;;40.58;21.38;;;;;;;-139.48;100.00;61774.03;5006809;28;20184;-67
2021/11/07 03:46:27;;;;;;;;;;;;;;;-139.48;100.00;61774.03;5009052;28;20096;-65
2021/11/07 03:49:11;;;;;;;51.60;22.23;;;;;;;-139.48;100.00;61774.03;5020711;28;20012;-67
2021/11/07 03:51:55;;;;;;;53.63;26.77;;;;;;;-139.48;100.00;61774.03;5035740;28;20148;-67
2021/11/07 03:54:41;;;;;;;57.03;26.05;;;;;;;-139.48;100.00;61774.03;5020723;28;20143;-67
2021/11/07 03:57:25;;;;;;;44.30;22.15;;;;;;;-139.48;100.00;61774.03;5035681;28;20053;-66
2021/11/07 04:00:11;;;;;;;39.90;15.20;;;;;;;-139.48;100.00;61774.03;5035363;28;20519;-68
2021/11/07 04:02:56;;;;;;;59.05;29.33;;;;;;;-139.48;100.00;61774.03;5035557;28;20560;-66
2021/11/07 04:05:40;;;;;;;50.35;24.88;;;;;;;-139.48;100.00;61774.03;5020567;28;20056;-67
2021/11/07 04:08:24;;;;;;;50.00;27.27;;;;;;;-139.48;100.00;61774.03;5020352;28;20045;-67
2021/11/07 04:11:08;;;;;;;54.58;26.35;;;;;;;-139.48;100.00;61774.03;5020085;28;20176;-65
2021/11/07 04:13:52;;;;;;;61.40;29.42;;;;;;;-139.48;100.00;61774.03;5020249;28;20585;-67
2021/11/07 04:16:37;;;;;;;52.42;26.27;;;;;;;-139.48;100.00;61774.03;5035302;28;20095;-67
2021/11/07 04:19:23;;;;;;;59.30;29.38;;;;;;;-139.48;100.00;61774.03;5035249;28;20091;-67
2021/11/07 04:22:09;;;;;;;54.20;25.45;;;;;;;-139.48;100.00;61774.03;5020485;28;20124;-67
2021/11/07 04:24:53;;;;;;;46.83;22.38;;;;;;;-139.48;100.00;61774.03;5006387;28;20071;-68
2021/11/07 04:27:37;;;;;;;39.80;20.15;;;;;;;-139.48;100.00;61774.03;5035452;28;20088;-65
2021/11/07 04:30:22;;;;;;;45.10;20.30;;;;;;;-139.48;100.00;61774.03;5019930;28;20560;-66
2021/11/07 04:33:06;;;;;;;46.20;21.33;;;;;;;-139.48;100.00;61774.03;5019963;28;20087;-65
2021/11/07 04:35:51;;;;;;;55.67;27.67;;;;;;;-139.48;100.00;61774.03;5019586;28;20465;-66
2021/11/07 04:38:37;;;;;;;65.25;28.60;;;;;;;-139.48;100.00;61774.03;5019922;28;20047;-66
2021/11/07 04:41:21;;;;;;;50.95;25.10;;;;;;;-139.48;100.00;61774.03;5019725;28;20516;-67
2021/11/07 04:44:06;;;;;;;52.67;24.35;;;;;;;-139.48;100.00;61774.03;5019650;28;20048;-66
2021/11/07 04:46:51;;;;;;;56.83;26.88;;;;;;;-139.48;100.00;61774.03;5019718;28;20047;-66
2021/11/07 04:49:35;;;;;;;34.97;14.13;;;;;;;-139.48;100.00;61774.03;5034363;28;20099;-66
2021/11/07 04:52:20;;;;;;;52.22;25.67;;;;;;;-139.48;100.00;61774.03;5034341;28;20052;-65
2021/11/07 04:55:05;;;;;;;42.72;20.77;;;;;;;-139.48;100.00;61774.03;5019601;28;20072;-67
2021/11/07 04:57:49;;;;;;;41.50;18.63;;;;;;;-139.48;100.00;61774.03;5019414;28;20088;-67
2021/11/07 05:00:34;;;;;;;47.67;22.10;;;;;;;-139.48;100.00;61774.03;5034478;28;20049;-65
2021/11/07 05:03:18;;;;;;;44.40;21.10;;;;;;;-139.48;100.00;61774.03;5034415;28;20052;-66
2021/11/07 05:06:02;;;;;;;49.70;22.30;;;;;;;-139.48;100.00;61774.03;5034018;28;20048;-66
2021/11/07 05:08:46;;;;;;;39.70;18.20;;;;;;;-139.48;100.00;61774.03;5019003;28;20091;-66
2021/11/07 05:11:31;;;;;;;58.38;27.38;;;;;;;-139.48;100.00;61774.03;5034487;28;20051;-66
2021/11/07 05:14:15;;;;;;;59.40;28.65;;;;;;;-139.48;100.00;61774.03;5019182;28;20461;-66
2021/11/07 05:16:59;;;;;;;55.50;25.95;;;;;;;-139.48;100.00;61774.03;5019109;28;20486;-61
2021/11/07 05:19:43;;;;;;;58.05;27.67;;;;;;;-139.48;100.00;61774.03;5019429;28;20044;-66
2021/11/07 05:22:27;;;;;;;41.15;14.73;;;;;;;-139.48;100.00;61774.03;5034330;28;20051;-66
2021/11/07 05:25:13;;;;;;;55.30;24.65;;;;;;;-139.48;100.00;61774.03;5018945;28;20056;-68
2021/11/07 05:27:57;;;;;;;61.75;29.25;;;;;;;-139.48;100.00;61774.03;5033546;28;20466;-67
2021/11/07 05:30:42;;;;;;;56.03;25.45;;;;;;;-139.48;100.00;61774.03;5033850;28;20132;-68
2021/11/07 05:33:26;;;;;;;62.22;27.05;;;;;;;-139.48;100.00;61774.03;5019222;28;20047;-67
2021/11/07 05:36:12;;;;;;;54.13;25.17;;;;;;;-139.48;100.00;61774.03;5033780;28;20048;-68
2021/11/07 05:38:56;;;;;;;59.70;26.60;;;;;;;-139.48;100.00;61774.03;5019030;28;20064;-67
2021/11/07 05:41:40;;;;;;;;;;;;;;;-139.48;100.00;61774.03;5005106;28;20052;-64
2021/11/07 05:44:24;;;;;;;62.87;26.90;;;;;;;-139.48;100.00;61774.03;5018280;28;20305;-67
2021/11/07 05:47:09;;;;;;;61.63;25.20;;;;;;;-139.48;100.00;61774.03;5018459;28;20257;-67
2021/11/07 05:49:53;;;;;;;63.53;28.10;;;;;;;-139.48;100.00;61774.03;5033167;28;20055;-67
2021/11/07 05:52:37;;;;;;;64.90;31.10;;;;;;;-139.48;100.00;61774.03;5018384;28;20052;-67
2021/11/07 05:55:21;;;;;;;62.17;29.17;;;;;;;-139.48;100.00;61774.03;5033443;28;20060;-68
2021/11/07 05:58:05;;;;;;;50.03;19.67;;;;;;;-139.48;100.00;61774.03;5018549;28;20098;-65
2021/11/07 06:00:49;;;;;;;42.67;17.00;;;;;;;-139.48;100.00;61774.03;5033491;28;20118;-67
2021/11/07 06:03:34;;;;;;;59.67;30.02;;;;;;;-139.48;100.00;61774.03;5004629;28;20064;-68
2021/11/07 06:06:18;;;;;;;58.58;22.38;;;;;;;-139.48;100.00;61774.03;5033716;28;20084;-68
2021/11/07 06:09:02;;;;;;;58.35;26.80;;;;;;;-139.48;100.00;61774.03;5018304;28;20099;-65
2021/11/07 06:11:46;;;;;;;54.53;24.60;;;;;;;-139.48;100.00;61774.03;5033049;28;20052;-65
2021/11/07 06:14:30;;;;;;;49.00;23.15;;;;;;;-139.48;100.00;61774.03;5018073;28;20056;-66
2021/11/07 06:17:15;;;;;;;41.35;17.88;;;;;;;-139.48;100.00;61774.03;5033292;28;20047;-66
2021/11/07 06:19:59;;;;;;;60.60;26.90;;;;;;;-139.48;100.00;61774.03;5018237;28;20048;-66
2021/11/07 06:22:43;;;;;;;53.45;23.95;;;;;;;-139.48;100.00;61774.03;5033536;28;20088;-66
2021/11/07 06:25:27;;;;;;;51.40;24.20;;;;;;;-139.48;100.00;61774.03;5017963;28;20048;-66
2021/11/07 06:28:11;;;;;;;55.97;24.15;;;;;;;-139.48;100.00;61774.03;5033160;28;20087;-65
2021/11/07 06:30:59;;;;;;;52.13;24.00;;;;;;;-139.48;100.00;61774.03;5018310;28;20051;-65
2021/11/07 06:33:43;;;;;;;59.53;23.52;;;;;;;-139.48;100.00;61774.03;5018574;28;20410;-67
2021/11/07 06:36:27;;;;;;;;;;;;;;;-139.48;100.00;61774.03;5018584;28;20052;-65
2021/11/07 06:39:11;;;;;;;57.87;23.57;;;;;;;-139.48;100.00;61774.03;5033095;28;20368;-67
2021/11/07 06:41:55;;;;;;;55.25;24.83;;;;;;;-139.48;100.00;61774.03;5033062;28;20132;-68
2021/11/07 06:44:39;;;;;;;39.20;14.38;;;;;;;-139.48;100.00;61774.03;5032681;28;20083;-67
2021/11/07 06:47:22;;;;;;;41.85;19.20;;;;;;;-139.48;100.00;61774.03;5032592;28;20525;-68
2021/11/07 06:50:07;;;;;;;45.75;16.23;;;;;;;-139.48;100.00;61774.03;5017842;28;20068;-67
2021/11/07 06:52:51;;;;;;;52.20;21.75;;;;;;;-139.48;100.00;61774.03;5032954;28;20053;-67
2021/11/07 06:55:35;;;;;;;;;;;;;;;-139.48;100.00;61774.03;5033043;28;20140;-64
2021/11/07 06:58:19;;;;;;;46.33;21.07;;;;;;;-139.48;100.00;61774.03;5032694;28;19939;-66
2021/11/07 07:01:04;;;;;;;55.38;25.95;;;;;;;-139.48;100.00;61774.03;5036691;28;20555;-68
2021/11/07 07:03:48;;;;;;;55.63;25.17;;;;;;;-139.48;100.00;61774.03;5036627;28;20083;-65
2021/11/07 07:06:33;;;;;;;52.30;23.23;;;;;;;-139.48;100.00;61774.03;5007933;28;20119;-65
2021/11/07 07:09:29;;;;;;;47.75;21.25;;;;;;;-139.48;100.00;61774.03;5021364;28;20079;-67
2021/11/07 07:12:28;;;;;;;51.63;22.40;;;;;;;-139.48;100.00;61774.03;5021415;28;20040;-67
2021/11/07 07:15:23;;;;;;;50.65;24.00;;;;;;;-139.48;100.00;61774.03;5023674;28;20053;-65
2021/11/07 07:18:35;;;;;;;46.72;22.30;;;;;;;-139.48;100.00;61774.03;5021417;28;20076;-66
2021/11/07 07:33:38;;;;;;;55.10;23.80;;;;;;;-139.48;100.00;61774.03;5023799;28;20056;-64
2021/11/07 07:36:22;;;;;;;44.75;21.75;;;;;;;-139.48;100.00;61774.03;5036262;28;20509;-68
2021/11/07 07:39:08;;;;;;;45.83;20.55;;;;;;;-139.48;100.00;61774.03;5036015;28;20116;-67
2021/11/07 07:41:52;;;;;;;48.42;22.67;;;;;;;-139.48;100.00;61774.03;5021136;28;20139;-66
2021/11/07 07:44:36;;;;;;;44.65;21.98;;;;;;;-139.48;100.00;61774.03;5020654;28;20060;-67
2021/11/07 07:47:20;;;;;;;42.70;22.02;;;;;;;-139.48;100.00;61774.03;5020839;28;20136;-67
2021/11/07 07:50:05;;;;;;;45.33;19.88;;;;;;;-139.48;100.00;61774.03;5020704;28;20133;-64
2021/11/07 07:52:50;;;;;;;28.52;14.77;;;;;;;-139.48;100.00;61774.03;5020645;28;20047;-67
2021/11/07 07:55:34;;;;;;;42.97;20.67;;;;;;;-139.48;100.00;61774.03;5020505;28;20418;-68
2021/11/07 07:58:18;;;;;;;44.33;20.58;;;;;;;-139.48;100.00;61774.03;5020673;28;20084;-64
2021/11/07 08:01:04;;;;;;;43.75;21.30;;;;;;;-139.48;100.00;61774.03;5020360;28;20051;-68
2021/11/07 08:03:48;;;;;;;46.28;21.85;;;;;;;-139.48;100.00;61774.03;5035472;28;20075;-64
2021/11/07 08:06:32;;;;;;;41.90;20.13;;;;;;;-139.48;100.00;61774.03;5035287;28;20410;-66
2021/11/07 08:09:16;;;;;;;33.83;16.08;;;;;;;-139.48;100.00;61774.03;5020182;28;20044;-68
2021/11/07 08:12:00;;;;;;;31.85;12.10;;;;;;;-139.48;100.00;61774.03;5019378;28;20099;-67
2021/11/07 08:14:44;;;;;;;40.38;20.38;;;;;;;-139.48;100.00;61774.03;5020122;28;20137;-67
2021/11/07 08:17:27;;;;;;;35.60;18.63;;;;;;;-139.48;100.00;61774.03;5020036;28;20052;-67
2021/11/07 08:20:12;;;;;;;40.25;17.60;;;;;;;-139.48;100.00;61774.03;5020185;28;20048;-67
2021/11/07 08:22:56;;;;;;;33.90;17.25;;;;;;;-139.48;100.00;61774.03;5019978;28;20064;-67
2021/11/07 08:25:41;;;;;;;;;;;;;;;-139.48;100.00;61774.03;5020514;28;20424;-67
2021/11/07 08:28:25;;;;;;;;;;;;;;;-139.48;100.00;61774.03;5035174;28;19948;-67
2021/11/07 08:31:18;;;;;;;32.88;15.13;;;;;;;-139.48;100.00;61774.03;5035070;28;19967;-67
2021/11/07 08:34:04;;;;;;;30.95;15.95;;;;;;;-139.48;100.00;61774.03;5021202;28;20039;-67
2021/11/07 08:37:11;;;;;;;27.08;14.65;;;;;;;-139.48;100.00;61774.03;5034667;28;20136;-67
2021/11/07 08:39:56;;;;;;;30.88;16.65;;;;;;;-139.48;100.00;61774.03;5035145;28;20080;-68
2021/11/07 08:42:49;;;;;;;29.13;13.95;;;;;;;-139.48;100.00;61774.03;5034553;28;20572;-67
2021/11/07 09:00:49;;;;;;;34.08;18.23;;;;;;;-139.48;100.00;61774.03;5034420;28;20517;-67
2021/11/07 09:03:45;;;;;;;32.00;16.90;;;;;;;-139.48;100.00;61774.03;5034159;28;20136;-67
2021/11/07 09:06:57;;;;;;;34.25;15.93;;;;;;;-139.48;100.00;61774.03;5034089;28;20048;-66
2021/11/07 09:09:43;;;;;;;37.63;17.55;;;;;;;-139.48;100.00;61774.03;5034169;28;20083;-65
2021/11/07 09:12:27;;;;;;;34.17;17.17;;;;;;;-139.48;100.00;61774.03;5005485;28;20170;-67
2021/11/07 09:15:13;;;;;;;34.78;18.10;;;;;;;-139.48;100.00;61774.03;5019029;28;20107;-68
2021/11/07 09:17:59;;;;;;;29.88;14.10;;;;;;;-139.48;100.00;61774.03;5034123;28;20119;-68
2021/11/07 09:21:04;;;;;;;31.70;14.13;;;;;;;-139.48;100.00;61774.03;5034037;28;20045;-67
2021/11/07 09:23:58;;;;;;;32.55;15.35;;;;;;;-139.48;100.00;61774.03;5033056;28;20514;-65
2021/11/07 09:26:46;;;;;;;30.58;15.25;;;;;;;-139.48;100.00;61774.03;5020236;28;20454;-66
2021/11/07 09:29:45;;;;;;;25.13;12.60;;;;;;;-139.48;100.00;61774.03;5033831;28;20058;-66
2021/11/07 09:36:02;;;;;;;27.70;15.27;;;;;;;-139.48;100.00;61774.03;5019066;28;20103;-66
2021/11/07 09:38:29;;;;;;;27.75;15.68;;;;;;;-139.48;100.00;61774.03;5033222;28;20183;-66
2021/11/07 09:44:07;;;;;;;29.90;15.45;;;;;;;-139.48;100.00;61774.03;5033743;28;20048;-65
2021/11/07 09:46:55;;;;;;;24.63;13.75;;;;;;;-139.48;100.00;61774.03;5021563;28;20048;-66
2021/11/07 09:49:49;;;;;;;26.50;13.32;;;;;;;-139.48;100.00;61774.03;5018999;28;20080;-66
2021/11/07 09:52:40;;;;;;;31.57;14.97;;;;;;;-139.48;100.00;61774.03;5033662;28;20160;-68
2021/11/07 09:55:26;;;;;;;25.27;12.00;;;;;;;-139.48;100.00;61774.03;5019587;28;20045;-63
2021/11/07 09:58:10;;;;;;;27.13;14.77;;;;;;;-139.48;100.00;61774.03;5033177;28;20056;-66
2021/11/07 10:00:55;;;;;;;27.75;14.25;;;;;;;-139.48;100.00;61774.03;5018291;28;20183;-67
2021/11/07 10:03:42;;;;;;;19.05;8.73;;;;;;;-139.48;100.00;61774.03;5018438;28;20099;-67
2021/11/07 10:06:32;;;;;;;24.42;13.13;;;;;;;-139.48;100.00;61774.03;5018264;28;20136;-68
2021/11/07 10:09:41;;;;;;;30.17;15.05;;;;;;;-139.48;100.00;61774.03;5018644;28;20064;-68
2021/11/07 10:12:36;;;;;;;23.63;11.93;;;;;;;-139.48;100.00;61774.03;5005214;28;20406;-67
2021/11/07 10:15:29;;;;;;;23.15;13.05;;;;;;;-139.48;100.00;61774.03;5018552;28;20052;-66
2021/11/07 10:18:27;;;;;;;16.92;8.55;;;;;;;-139.48;100.00;61774.03;5033372;28;20048;-66
2021/11/07 10:21:44;;;;;;;20.38;10.48;;;;;;;-139.48;100.00;61774.03;5033353;28;20048;-65
2021/11/07 10:24:35;;;;;;;25.85;11.40;;;;;;;-139.48;100.00;61774.03;5033178;28;20524;-66
2021/11/07 10:27:18;;;;;;;24.08;13.82;;;;;;;-139.48;100.00;61774.03;5019570;28;20158;-67
2021/11/07 10:30:16;;;;;;;22.52;13.77;;;;;;;-139.48;100.00;61774.03;5017505;28;20053;-67
2021/11/07 10:33:15;;;;;;;25.27;13.60;;;;;;;-139.48;100.00;61774.03;5019113;28;20478;-65
2021/11/07 10:36:44;;;;;;;17.88;9.80;;;;;;;-139.48;100.00;61774.03;5035851;28;20518;-67
2021/11/07 10:42:45;;;;;;;;;;;;;;;-139.48;100.00;61774.03;5037150;28;20099;-65
2021/11/07 10:54:41;;;;;;;21.05;12.50;;;;;;;-139.48;100.00;61774.03;5023713;28;20075;-66
2021/11/07 10:57:29;;;;;;;22.30;11.63;;;;;;;-139.48;100.00;61774.03;5035926;28;20115;-65
2021/11/07 11:00:29;;;;;;;20.77;11.07;;;;;;;-139.48;100.00;61774.03;5020865;28;20099;-66
2021/11/07 11:03:18;;;;;;;18.80;9.00;;;;;;;-139.48;100.00;61774.03;5035913;28;20048;-65
2021/11/07 11:06:12;;;;;;;19.60;11.45;;;;;;;-139.48;100.00;61774.03;5035775;28;20178;-66
2021/11/07 11:08:59;;;;;;;18.23;11.25;;;;;;;-139.48;100.00;61774.03;5035800;28;20099;-67
2021/11/07 11:11:49;;;;;;;17.67;10.70;;;;;;;-139.48;100.00;61774.03;5007426;28;20446;-63
2021/11/07 11:14:38;;;;;;;17.08;10.98;;;;;;;-139.48;100.00;61774.03;5020819;28;20382;-67
2021/11/07 11:17:43;;;;;;;20.70;11.45;;;;;;;-139.48;100.00;61774.03;5021378;28;20107;-67
2021/11/07 11:20:40;;;;;;;22.48;11.20;;;;;;;-139.48;100.00;61774.03;5020718;28;20056;-68
2021/11/07 11:27:11;;;;;;;18.17;10.88;;;;;;;-139.48;100.00;61774.03;5023297;28;20107;-66
2021/11/07 11:38:51;;;;;;;25.20;14.38;;;;;;;-139.48;100.00;61774.03;5022548;28;20067;-67
2021/11/07 11:44:20;;;;;;;25.90;14.27;;;;;;;-139.48;100.00;61774.03;5020293;28;20044;-68
2021/11/07 11:47:38;;;;;;;26.85;14.73;;;;;;;-139.48;100.00;61774.03;5005252;28;20044;-68
2021/11/07 11:50:51;;;;;;;28.65;13.85;;;;;;;-139.48;100.00;61774.03;5021191;28;20557;-67
2021/11/07 11:54:33;;;;;;;22.52;12.68;;;;;;;-139.48;100.00;61774.03;5023893;28;20048;-67
2021/11/07 12:09:44;;;;;;;27.48;14.15;;;;;;;-139.48;100.00;61774.03;5019891;28;20402;-67
2021/11/07 12:15:45;;;;;;;23.20;13.80;;;;;;;8.80;nan;99337.94;5021640;28;20052;-66
2021/11/07 12:18:29;;;;;;;21.23;12.43;;;;;;;8.72;nan;100849.19;5019699;28;20445;-66
2021/11/07 12:21:13;;;;;;;24.08;12.90;;;;;;;8.67;nan;100846.06;5019278;28;20107;-67
2021/11/07 12:24:08;;;;;;;22.50;14.07;;;;;;;8.63;nan;100848.09;5005351;28;20055;-68
2021/11/07 12:26:53;;;;;;;26.52;13.75;;;;;;;8.67;nan;100848.72;5033280;28;20048;-67
2021/11/07 12:29:39;;;;;;;27.85;13.95;;;;;;;8.65;nan;100858.63;5019276;28;20521;-67
2021/11/07 12:32:33;;;;;;;25.95;14.27;;;;;;;8.68;nan;100863.69;5005529;28;20541;-67
2021/11/07 12:35:33;;;;;;;20.30;12.83;;;;;;;8.61;nan;100850.03;5019092;28;20076;-68
2021/11/07 12:41:28;;;;;;;20.00;12.07;;;;;;;8.71;nan;100844.84;5034326;28;20040;-66
2021/11/07 12:44:21;;;;;;;20.10;12.40;;;;;;;8.70;nan;100845.81;5018663;28;20457;-68
2021/11/07 12:47:09;;;;;;;21.75;13.35;;;;;;;8.85;nan;100844.66;5034060;28;20060;-67
2021/11/07 12:50:07;;;;;;;19.05;11.77;;;;;;;8.88;nan;100829.28;5019031;28;20055;-67
2021/11/07 12:52:55;;;;;;;18.63;10.13;;;;;;;8.81;nan;100827.22;5034038;28;20076;-65
2021/11/07 12:55:39;;;;;;;19.27;11.73;;;;;;;8.97;nan;100822.41;5033699;28;20130;-65
2021/11/07 12:58:23;;;;;;;17.10;11.07;;;;;;;8.87;nan;100822.28;5018767;28;20049;-66
2021/11/07 13:01:07;;;;;;;14.95;9.90;;;;;;;8.67;nan;100816.81;5019756;28;20091;-65
2021/11/07 13:03:53;;;;;;;16.58;9.23;;;;;;;8.67;nan;100815.00;5019155;28;20053;-68
2021/11/07 13:06:37;;;;;;;17.50;9.93;;;;;;;8.78;nan;100820.31;5019205;28;20111;-68
2021/11/07 13:09:24;;;;;;;15.50;9.60;;;;;;;8.67;nan;100827.47;5018328;28;20103;-68
2021/11/07 13:12:22;;;;;;;12.43;8.57;;;;;;;8.54;nan;100829.38;5018829;28;20115;-66
2021/11/07 13:27:48;;;;;;;15.43;10.02;;;;;;;8.65;nan;100805.47;5006601;28;20060;-67
2021/11/07 13:30:33;;;;;;;16.40;9.80;;;;;;;8.77;nan;100804.50;5005141;28;20525;-67
2021/11/07 13:33:22;;;;;;;18.85;11.05;;;;;;;8.81;nan;100808.63;5018241;28;20111;-67
2021/11/07 13:36:07;;;;;;;15.55;9.75;;;;;;;9.05;nan;100807.53;5033225;28;20119;-68
2021/11/07 13:39:03;;;;;;;17.70;10.43;;;;;;;9.03;nan;100805.94;5032149;28;20056;-68
2021/11/07 13:41:52;;;;;;;15.02;8.90;;;;;;;9.00;nan;100800.88;5019373;28;20140;-68
2021/11/07 13:44:55;;;;;;;14.90;9.73;;;;;;;9.12;nan;100798.09;5031903;28;20414;-67
2021/11/07 13:47:42;;;;;;;12.98;8.77;;;;;;;9.01;nan;100791.94;5018747;28;20487;-67
2021/11/07 13:50:32;;;;;;;14.30;8.27;;;;;;;9.06;nan;100795.09;5018012;28;20052;-67
2021/11/07 13:53:21;;;;;;;17.25;9.75;;;;;;;9.12;nan;100781.28;5032955;28;20529;-67
2021/11/07 13:56:11;;;;;;;13.98;9.13;;;;;;;8.96;nan;100775.50;5032994;28;20072;-67
2021/11/07 13:58:56;;;;;;;13.90;9.10;;;;;;;8.80;nan;100785.66;5003921;28;20091;-66
2021/11/07 14:01:40;;;;;;;18.50;9.65;;;;;;;8.90;nan;100789.28;5032807;28;20047;-66
2021/11/07 14:04:39;;;;;;;19.23;10.68;;;;;;;8.89;nan;100787.59;5017511;28;20418;-67
2021/11/07 14:07:32;;;;;;;16.63;9.65;;;;;;;8.80;nan;100796.28;5018015;28;20048;-66
2021/11/07 14:10:18;;;;;;;18.05;9.88;;;;;;;8.78;nan;100800.88;5031819;28;20506;-67
2021/11/07 14:13:10;;;;;;;16.88;10.82;;;;;;;8.78;nan;100795.56;5017652;28;20102;-66
2021/11/07 14:15:54;;;;;;;20.70;11.05;;;;;;;8.87;nan;100784.22;5017366;28;20453;-67
2021/11/07 14:18:46;;;;;;;13.38;5.80;;;;;;;8.74;nan;100791.44;5032682;28;20080;-67
2021/11/07 14:21:32;;;;;;;14.10;9.05;;;;;;;8.77;nan;100783.25;5017469;28;20088;-67
2021/11/07 14:24:28;;;;;;;18.45;10.52;;;;;;;8.85;nan;100775.53;5017699;28;20143;-66
2021/11/07 14:27:20;;;;;;;17.25;10.00;;;;;;;8.99;nan;100777.94;5018511;28;20048;-67
2021/11/07 14:30:10;;;;;;;17.52;10.10;;;;;;;9.00;nan;100780.47;5018544;28;20156;-68
2021/11/07 14:33:02;;;;;;;17.85;10.52;;;;;;;9.05;nan;100798.72;5018432;28;20545;-67
2021/11/07 14:35:49;;;;;;;18.60;9.85;;;;;;;9.12;nan;100802.56;5018483;28;20095;-69
2021/11/07 14:38:39;;;;;;;15.68;9.27;;;;;;;9.13;nan;100801.59;5017888;28;20048;-69